sensor_id;sensor_type;location;lat;lon;timestamp;pressure;altitude;pressure_sealevel;temperature;humidity
16544;BME280;8384;47.996;7.786;2023-04-01T00:00:07;97758.78;;;7.12;96.62
16544;BME280;8384;47.996;7.786;2023-04-01T00:02:33;97769.88;;;7.05;99.13
16544;BME280;8384;47.996;7.786;2023-04-01T00:04:58;97766.53;;;6.93;99.99
16544;BME280;8384;47.996;7.786;2023-04-01T00:07:23;97721.69;;;6.47;100.00
16544;BME280;8384;47.996;7.786;2023-04-01T00:09:49;97759.72;;;6.90;100.00
16544;BME280;8384;47.996;7.786;2023-04-01T00:12:14;97727.78;;;6.65;100.00
16544;BME280;8384;47.996;7.786;2023-04-01T00:14:39;97745.78;;;6.76;100.00
16544;BME280;8384;47.996;7.786;2023-04-01T00:17:05;97760.00;;;6.88;100.00
16544;BME280;8384;47.996;7.786;2023-04-01T00:19:30;97753.44;;;6.84;100.00
16544;BME280;8384;47.996;7.786;2023-04-01T00:21:57;97742.47;;;6.69;100.00
16544;BME280;8384;47.996;7.786;2023-04-01T00:24:23;97748.84;;;6.85;100.00
16544;BME280;8384;47.996;7.786;2023-04-01T00:26:48;97734.75;;;6.88;100.00
16544;BME280;8384;47.996;7.786;2023-04-01T00:29:13;97742.88;;;6.88;100.00
16544;BME280;8384;47.996;7.786;2023-04-01T00:31:39;97705.78;;;6.66;100.00
16544;BME280;8384;47.996;7.786;2023-04-01T00:34:04;97719.16;;;6.78;100.00
16544;BME280;8384;47.996;7.786;2023-04-01T00:36:30;97740.69;;;6.85;100.00
16544;BME280;8384;47.996;7.786;2023-04-01T00:38:55;97726.09;;;6.58;100.00
16544;BME280;8384;47.996;7.786;2023-04-01T00:41:22;97724.28;;;6.69;100.00
16544;BME280;8384;47.996;7.786;2023-04-01T00:43:49;97736.69;;;6.98;100.00
16544;BME280;8384;47.996;7.786;2023-04-01T00:46:15;97723.19;;;6.70;100.00
16544;BME280;8384;47.996;7.786;2023-04-01T00:48:54;97749.25;;;7.09;100.00
16544;BME280;8384;47.996;7.786;2023-04-01T00:51:25;97753.31;;;7.07;100.00
16544;BME280;8384;47.996;7.786;2023-04-01T00:53:54;97702.31;;;6.71;100.00
16544;BME280;8384;47.996;7.786;2023-04-01T00:56:36;97740.84;;;7.11;100.00
16544;BME280;8384;47.996;7.786;2023-04-01T00:59:10;97693.91;;;6.78;100.00
16544;BME280;8384;47.996;7.786;2023-04-01T01:01:36;97752.28;;;7.18;100.00
16544;BME280;8384;47.996;7.786;2023-04-01T01:04:02;97679.78;;;6.75;100.00
16544;BME280;8384;47.996;7.786;2023-04-01T01:06:49;97741.97;;;7.20;100.00
16544;BME280;8384;47.996;7.786;2023-04-01T01:09:50;97742.19;;;7.13;100.00
16544;BME280;8384;47.996;7.786;2023-04-01T01:12:34;97734.06;;;7.13;100.00
16544;BME280;8384;47.996;7.786;2023-04-01T01:15:05;97724.88;;;7.25;100.00
16544;BME280;8384;47.996;7.786;2023-04-01T01:26:46;97708.78;;;7.18;100.00
16544;BME280;8384;47.996;7.786;2023-04-01T01:37:20;97724.38;;;7.38;100.00
16544;BME280;8384;47.996;7.786;2023-04-01T01:39:52;97717.84;;;7.39;100.00
16544;BME280;8384;47.996;7.786;2023-04-01T01:42:20;97722.50;;;7.49;100.00
16544;BME280;8384;47.996;7.786;2023-04-01T01:44:48;97709.13;;;7.32;100.00
16544;BME280;8384;47.996;7.786;2023-04-01T01:47:16;97712.16;;;7.41;100.00
16544;BME280;8384;47.996;7.786;2023-04-01T01:49:44;97691.47;;;7.34;100.00
16544;BME280;8384;47.996;7.786;2023-04-01T01:52:11;97691.81;;;7.48;98.34
16544;BME280;8384;47.996;7.786;2023-04-01T01:54:47;97711.88;;;7.42;96.98
16544;BME280;8384;47.996;7.786;2023-04-01T01:57:13;97737.00;;;7.70;97.10
16544;BME280;8384;47.996;7.786;2023-04-01T01:59:41;97693.97;;;7.46;97.46
16544;BME280;8384;47.996;7.786;2023-04-01T02:02:08;97742.16;;;7.72;96.85
16544;BME280;8384;47.996;7.786;2023-04-01T02:04:37;97717.66;;;7.56;96.19
16544;BME280;8384;47.996;7.786;2023-04-01T02:07:08;97711.44;;;7.71;96.71
16544;BME280;8384;47.996;7.786;2023-04-01T02:09:36;97738.13;;;7.85;95.87
16544;BME280;8384;47.996;7.786;2023-04-01T02:12:13;97725.91;;;7.87;95.89
16544;BME280;8384;47.996;7.786;2023-04-01T02:14:47;97736.16;;;7.70;95.77
16544;BME280;8384;47.996;7.786;2023-04-01T02:17:19;97726.94;;;7.71;95.62
16544;BME280;8384;47.996;7.786;2023-04-01T02:19:57;97717.13;;;7.70;96.44
16544;BME280;8384;47.996;7.786;2023-04-01T02:22:27;97725.56;;;7.68;95.94
16544;BME280;8384;47.996;7.786;2023-04-01T02:24:57;97728.56;;;7.72;97.37
16544;BME280;8384;47.996;7.786;2023-04-01T02:27:23;97738.38;;;7.78;97.35
16544;BME280;8384;47.996;7.786;2023-04-01T02:29:50;97704.88;;;7.62;98.30
16544;BME280;8384;47.996;7.786;2023-04-01T02:32:16;97702.94;;;7.47;100.00
16544;BME280;8384;47.996;7.786;2023-04-01T02:34:43;97694.25;;;7.50;100.00
16544;BME280;8384;47.996;7.786;2023-04-01T02:37:08;97698.78;;;7.29;100.00
16544;BME280;8384;47.996;7.786;2023-04-01T02:39:34;97727.34;;;7.31;100.00
16544;BME280;8384;47.996;7.786;2023-04-01T02:41:59;97711.28;;;7.30;100.00
16544;BME280;8384;47.996;7.786;2023-04-01T02:44:25;97741.47;;;7.28;100.00
16544;BME280;8384;47.996;7.786;2023-04-01T02:46:50;97736.84;;;7.29;100.00
16544;BME280;8384;47.996;7.786;2023-04-01T02:49:15;97740.84;;;7.16;100.00
16544;BME280;8384;47.996;7.786;2023-04-01T02:51:41;97739.22;;;7.10;100.00
16544;BME280;8384;47.996;7.786;2023-04-01T02:54:06;97733.47;;;7.06;100.00
16544;BME280;8384;47.996;7.786;2023-04-01T02:56:31;97737.50;;;6.98;100.00
16544;BME280;8384;47.996;7.786;2023-04-01T02:58:56;97728.75;;;6.91;100.00
16544;BME280;8384;47.996;7.786;2023-04-01T03:01:22;97715.88;;;6.71;100.00
16544;BME280;8384;47.996;7.786;2023-04-01T03:03:48;97734.19;;;6.86;100.00
16544;BME280;8384;47.996;7.786;2023-04-01T03:06:15;97716.38;;;6.63;100.00
16544;BME280;8384;47.996;7.786;2023-04-01T03:08:41;97703.25;;;6.54;100.00
16544;BME280;8384;47.996;7.786;2023-04-01T03:11:06;97715.59;;;6.72;100.00
16544;BME280;8384;47.996;7.786;2023-04-01T03:13:32;97704.47;;;6.69;100.00
16544;BME280;8384;47.996;7.786;2023-04-01T03:15:58;97731.19;;;6.87;100.00
16544;BME280;8384;47.996;7.786;2023-04-01T03:18:23;97736.91;;;6.86;100.00
16544;BME280;8384;47.996;7.786;2023-04-01T03:20:48;97740.16;;;6.88;100.00
16544;BME280;8384;47.996;7.786;2023-04-01T03:23:14;97744.81;;;6.93;100.00
16544;BME280;8384;47.996;7.786;2023-04-01T03:25:41;97751.34;;;6.97;100.00
16544;BME280;8384;47.996;7.786;2023-04-01T03:28:06;97754.63;;;7.04;100.00
16544;BME280;8384;47.996;7.786;2023-04-01T03:30:32;97759.56;;;7.07;100.00
16544;BME280;8384;47.996;7.786;2023-04-01T03:33:00;97722.25;;;6.92;100.00
16544;BME280;8384;47.996;7.786;2023-04-01T03:35:26;97745.94;;;7.02;100.00
16544;BME280;8384;47.996;7.786;2023-04-01T03:37:52;97757.88;;;6.96;100.00
16544;BME280;8384;47.996;7.786;2023-04-01T03:40:17;97739.91;;;6.89;100.00
16544;BME280;8384;47.996;7.786;2023-04-01T03:42:43;97747.00;;;6.96;100.00
16544;BME280;8384;47.996;7.786;2023-04-01T03:45:08;97705.03;;;6.71;100.00
16544;BME280;8384;47.996;7.786;2023-04-01T03:47:34;97729.81;;;6.85;100.00
16544;BME280;8384;47.996;7.786;2023-04-01T03:50:00;97724.16;;;6.92;100.00
16544;BME280;8384;47.996;7.786;2023-04-01T03:52:25;97693.03;;;6.67;100.00
16544;BME280;8384;47.996;7.786;2023-04-01T03:54:50;97670.88;;;6.42;100.00
16544;BME280;8384;47.996;7.786;2023-04-01T03:57:16;97694.91;;;6.66;100.00
16544;BME280;8384;47.996;7.786;2023-04-01T03:59:41;97713.44;;;6.74;100.00
16544;BME280;8384;47.996;7.786;2023-04-01T04:02:06;97718.31;;;6.72;100.00
16544;BME280;8384;47.996;7.786;2023-04-01T04:04:31;97707.41;;;6.62;100.00
16544;BME280;8384;47.996;7.786;2023-04-01T04:06:57;97718.84;;;6.69;100.00
16544;BME280;8384;47.996;7.786;2023-04-01T04:09:23;97720.25;;;6.77;100.00
16544;BME280;8384;47.996;7.786;2023-04-01T04:11:49;97714.75;;;6.67;100.00
16544;BME280;8384;47.996;7.786;2023-04-01T04:14:14;97724.00;;;6.66;100.00
16544;BME280;8384;47.996;7.786;2023-04-01T04:16:40;97722.69;;;6.73;100.00
16544;BME280;8384;47.996;7.786;2023-04-01T04:19:05;97717.53;;;6.77;100.00
16544;BME280;8384;47.996;7.786;2023-04-01T04:21:30;97718.59;;;6.76;100.00
16544;BME280;8384;47.996;7.786;2023-04-01T04:23:55;97675.63;;;6.63;100.00
16544;BME280;8384;47.996;7.786;2023-04-01T04:26:21;97714.63;;;6.89;100.00
16544;BME280;8384;47.996;7.786;2023-04-01T04:28:46;97694.16;;;6.71;100.00
16544;BME280;8384;47.996;7.786;2023-04-01T04:31:12;97694.38;;;6.64;100.00
16544;BME280;8384;47.996;7.786;2023-04-01T04:33:37;97683.28;;;6.71;100.00
16544;BME280;8384;47.996;7.786;2023-04-01T04:36:03;97697.78;;;6.87;100.00
16544;BME280;8384;47.996;7.786;2023-04-01T04:38:29;97697.00;;;6.92;100.00
16544;BME280;8384;47.996;7.786;2023-04-01T04:40:55;97701.38;;;6.98;100.00
16544;BME280;8384;47.996;7.786;2023-04-01T04:43:20;97699.97;;;6.95;100.00
16544;BME280;8384;47.996;7.786;2023-04-01T04:45:46;97697.28;;;6.95;100.00
16544;BME280;8384;47.996;7.786;2023-04-01T04:48:13;97706.00;;;7.02;100.00
16544;BME280;8384;47.996;7.786;2023-04-01T04:50:43;97687.69;;;6.82;100.00
16544;BME280;8384;47.996;7.786;2023-04-01T04:53:12;97667.81;;;6.71;100.00
16544;BME280;8384;47.996;7.786;2023-04-01T04:55:43;97691.59;;;6.97;100.00
16544;BME280;8384;47.996;7.786;2023-04-01T04:58:08;97659.13;;;6.74;100.00
16544;BME280;8384;47.996;7.786;2023-04-01T05:00:34;97694.88;;;7.04;100.00
16544;BME280;8384;47.996;7.786;2023-04-01T05:02:59;97692.16;;;7.04;100.00
16544;BME280;8384;47.996;7.786;2023-04-01T05:05:25;97691.31;;;6.98;100.00
16544;BME280;8384;47.996;7.786;2023-04-01T05:07:50;97688.13;;;7.12;100.00
16544;BME280;8384;47.996;7.786;2023-04-01T05:10:15;97690.31;;;7.15;98.33
16544;BME280;8384;47.996;7.786;2023-04-01T05:12:40;97669.34;;;7.10;98.24
16544;BME280;8384;47.996;7.786;2023-04-01T05:15:07;97689.75;;;7.08;99.00
16544;BME280;8384;47.996;7.786;2023-04-01T05:17:32;97661.22;;;7.10;97.38
16544;BME280;8384;47.996;7.786;2023-04-01T05:19:58;97673.78;;;7.27;97.74
16544;BME280;8384;47.996;7.786;2023-04-01T05:22:23;97697.16;;;7.23;97.97
16544;BME280;8384;47.996;7.786;2023-04-01T05:24:49;97677.00;;;7.18;96.95
16544;BME280;8384;47.996;7.786;2023-04-01T05:27:14;97709.16;;;7.37;97.06
16544;BME280;8384;47.996;7.786;2023-04-01T05:29:39;97686.53;;;7.26;97.60
16544;BME280;8384;47.996;7.786;2023-04-01T05:32:05;97670.25;;;7.31;97.45
16544;BME280;8384;47.996;7.786;2023-04-01T05:34:30;97647.38;;;7.22;96.31
16544;BME280;8384;47.996;7.786;2023-04-01T05:36:55;97650.97;;;7.38;95.82
16544;BME280;8384;47.996;7.786;2023-04-01T05:39:20;97652.06;;;7.37;95.67
16544;BME280;8384;47.996;7.786;2023-04-01T05:41:46;97636.00;;;7.25;95.90
16544;BME280;8384;47.996;7.786;2023-04-01T05:44:12;97656.69;;;7.42;94.63
16544;BME280;8384;47.996;7.786;2023-04-01T05:46:38;97676.81;;;7.41;95.27
16544;BME280;8384;47.996;7.786;2023-04-01T05:49:03;97670.56;;;7.45;95.80
16544;BME280;8384;47.996;7.786;2023-04-01T05:51:28;97665.94;;;7.46;95.40
16544;BME280;8384;47.996;7.786;2023-04-01T05:53:54;97672.22;;;7.57;94.46
16544;BME280;8384;47.996;7.786;2023-04-01T05:56:19;97638.19;;;7.44;93.74
16544;BME280;8384;47.996;7.786;2023-04-01T05:58:49;97660.00;;;7.59;94.23
16544;BME280;8384;47.996;7.786;2023-04-01T06:01:15;97647.78;;;7.72;93.35
16544;BME280;8384;47.996;7.786;2023-04-01T06:03:40;97666.81;;;7.67;93.44
16544;BME280;8384;47.996;7.786;2023-04-01T06:06:13;97663.00;;;7.63;93.56
16544;BME280;8384;47.996;7.786;2023-04-01T06:08:39;97666.28;;;7.65;92.25
16544;BME280;8384;47.996;7.786;2023-04-01T06:11:19;97666.84;;;7.72;91.89
16544;BME280;8384;47.996;7.786;2023-04-01T06:14:09;97652.66;;;7.55;91.66
16544;BME280;8384;47.996;7.786;2023-04-01T06:16:48;97657.03;;;7.71;91.53
16544;BME280;8384;47.996;7.786;2023-04-01T06:19:27;97675.56;;;7.79;91.42
16544;BME280;8384;47.996;7.786;2023-04-01T06:24:37;97664.66;;;7.69;91.39
16544;BME280;8384;47.996;7.786;2023-04-01T06:27:55;97686.97;;;7.76;91.85
16544;BME280;8384;47.996;7.786;2023-04-01T06:30:38;97682.63;;;7.80;91.47
16544;BME280;8384;47.996;7.786;2023-04-01T06:38:44;97675.81;;;7.83;90.13
16544;BME280;8384;47.996;7.786;2023-04-01T06:41:24;97676.94;;;7.87;89.93
16544;BME280;8384;47.996;7.786;2023-04-01T06:47:04;97678.03;;;7.91;88.69
16544;BME280;8384;47.996;7.786;2023-04-01T06:49:51;97670.13;;;7.90;89.54
16544;BME280;8384;47.996;7.786;2023-04-01T06:52:31;97689.75;;;8.02;88.34
16544;BME280;8384;47.996;7.786;2023-04-01T07:01:13;97676.41;;;8.11;87.93
16544;BME280;8384;47.996;7.786;2023-04-01T07:04:05;97673.94;;;7.99;88.65
16544;BME280;8384;47.996;7.786;2023-04-01T07:06:48;97668.50;;;8.09;88.67
16544;BME280;8384;47.996;7.786;2023-04-01T07:09:19;97659.50;;;8.04;88.60
16544;BME280;8384;47.996;7.786;2023-04-01T07:11:45;97687.28;;;8.06;88.73
16544;BME280;8384;47.996;7.786;2023-04-01T07:14:27;97641.53;;;7.98;88.44
16544;BME280;8384;47.996;7.786;2023-04-01T07:17:15;97660.88;;;8.22;87.59
16544;BME280;8384;47.996;7.786;2023-04-01T07:19:45;97655.69;;;8.25;87.47
16544;BME280;8384;47.996;7.786;2023-04-01T07:22:32;97638.56;;;8.15;87.33
16544;BME280;8384;47.996;7.786;2023-04-01T07:25:14;97682.13;;;8.25;87.91
16544;BME280;8384;47.996;7.786;2023-04-01T07:27:41;97618.97;;;7.97;88.16
16544;BME280;8384;47.996;7.786;2023-04-01T07:30:18;97661.41;;;8.39;88.00
16544;BME280;8384;47.996;7.786;2023-04-01T07:32:48;97690.28;;;8.35;87.57
16544;BME280;8384;47.996;7.786;2023-04-01T07:35:25;97668.78;;;8.13;88.14
16544;BME280;8384;47.996;7.786;2023-04-01T07:38:11;97664.41;;;8.22;88.11
16544;BME280;8384;47.996;7.786;2023-04-01T07:40:47;97684.84;;;8.25;89.15
16544;BME280;8384;47.996;7.786;2023-04-01T07:44:23;97693.00;;;8.35;87.97
16544;BME280;8384;47.996;7.786;2023-04-01T07:46:43;97698.72;;;8.29;89.12
16544;BME280;8384;47.996;7.786;2023-04-01T07:49:17;97692.19;;;8.45;87.14
16544;BME280;8384;47.996;7.786;2023-04-01T07:51:55;97704.19;;;8.49;86.75
16544;BME280;8384;47.996;7.786;2023-04-01T07:54:49;97691.13;;;8.51;87.09
16544;BME280;8384;47.996;7.786;2023-04-01T07:57:22;97702.53;;;8.43;86.07
16544;BME280;8384;47.996;7.786;2023-04-01T08:02:44;97693.28;;;8.49;87.08
16544;BME280;8384;47.996;7.786;2023-04-01T08:05:28;97699.81;;;8.53;85.17
16544;BME280;8384;47.996;7.786;2023-04-01T08:21:23;97708.00;;;8.43;86.55
16544;BME280;8384;47.996;7.786;2023-04-01T08:23:52;97681.28;;;8.24;86.53
16544;BME280;8384;47.996;7.786;2023-04-01T08:29:06;97730.63;;;8.49;86.50
16544;BME280;8384;47.996;7.786;2023-04-01T08:31:42;97727.59;;;8.55;86.41
16544;BME280;8384;47.996;7.786;2023-04-01T08:34:15;97702.25;;;8.39;86.56
16544;BME280;8384;47.996;7.786;2023-04-01T08:36:46;97687.84;;;8.54;85.42
16544;BME280;8384;47.996;7.786;2023-04-01T08:39:19;97707.47;;;8.62;85.42
16544;BME280;8384;47.996;7.786;2023-04-01T08:47:50;97721.84;;;8.98;83.86
16544;BME280;8384;47.996;7.786;2023-04-01T08:50:27;97729.50;;;8.81;85.06
16544;BME280;8384;47.996;7.786;2023-04-01T08:55:51;97736.53;;;9.08;84.33
16544;BME280;8384;47.996;7.786;2023-04-01T09:01:21;97721.84;;;8.93;84.27
16544;BME280;8384;47.996;7.786;2023-04-01T09:40:37;97767.03;;;9.20;81.30
16544;BME280;8384;47.996;7.786;2023-04-01T09:43:27;97755.03;;;9.21;81.66
16544;BME280;8384;47.996;7.786;2023-04-01T09:48:53;97773.81;;;9.28;80.96
16544;BME280;8384;47.996;7.786;2023-04-01T09:51:28;97769.19;;;9.28;80.78
16544;BME280;8384;47.996;7.786;2023-04-01T09:57:13;97737.38;;;8.98;80.65
16544;BME280;8384;47.996;7.786;2023-04-01T10:10:59;97804.03;;;9.47;79.08
16544;BME280;8384;47.996;7.786;2023-04-01T10:14:06;97795.31;;;9.45;78.35
16544;BME280;8384;47.996;7.786;2023-04-01T10:25:05;97780.66;;;9.15;78.71
16544;BME280;8384;47.996;7.786;2023-04-01T10:33:31;97809.00;;;9.35;77.98
16544;BME280;8384;47.996;7.786;2023-04-01T10:47:39;97800.81;;;9.40;78.13
16544;BME280;8384;47.996;7.786;2023-04-01T10:53:34;97785.84;;;9.22;79.80
16544;BME280;8384;47.996;7.786;2023-04-01T11:02:17;97807.06;;;9.35;79.05
16544;BME280;8384;47.996;7.786;2023-04-01T11:17:23;97808.72;;;9.41;78.52
16544;BME280;8384;47.996;7.786;2023-04-01T11:31:20;97779.03;;;9.19;78.89
16544;BME280;8384;47.996;7.786;2023-04-01T11:34:16;97840.09;;;9.23;79.00
16544;BME280;8384;47.996;7.786;2023-04-01T11:37:01;97794.56;;;9.24;79.80
16544;BME280;8384;47.996;7.786;2023-04-01T11:39:58;97800.03;;;9.13;79.56
16544;BME280;8384;47.996;7.786;2023-04-01T11:42:41;97815.00;;;9.21;79.82
16544;BME280;8384;47.996;7.786;2023-04-01T11:45:38;97826.22;;;9.25;79.76
16544;BME280;8384;47.996;7.786;2023-04-01T11:48:24;97812.22;;;9.47;79.51
16544;BME280;8384;47.996;7.786;2023-04-01T11:51:24;97826.50;;;9.13;79.81
16544;BME280;8384;47.996;7.786;2023-04-01T11:54:15;97811.44;;;9.41;79.85
16544;BME280;8384;47.996;7.786;2023-04-01T11:56:53;97737.88;;;9.15;78.94
16544;BME280;8384;47.996;7.786;2023-04-01T11:59:47;97764.84;;;9.17;80.87
16544;BME280;8384;47.996;7.786;2023-04-01T12:03:21;97797.50;;;9.53;80.17
16544;BME280;8384;47.996;7.786;2023-04-01T12:05:28;97812.75;;;9.59;79.93
16544;BME280;8384;47.996;7.786;2023-04-01T12:08:31;97809.72;;;9.66;79.32
16544;BME280;8384;47.996;7.786;2023-04-01T12:11:19;97721.03;;;8.98;78.92
16544;BME280;8384;47.996;7.786;2023-04-01T12:14:02;97806.53;;;9.38;79.81
16544;BME280;8384;47.996;7.786;2023-04-01T12:16:51;97811.13;;;9.58;79.54
16544;BME280;8384;47.996;7.786;2023-04-01T12:19:32;97802.88;;;9.74;78.03
16544;BME280;8384;47.996;7.786;2023-04-01T12:25:14;97812.66;;;9.80;77.84
16544;BME280;8384;47.996;7.786;2023-04-01T12:27:57;97808.06;;;9.70;78.57
16544;BME280;8384;47.996;7.786;2023-04-01T12:30:33;97780.56;;;9.56;78.32
16544;BME280;8384;47.996;7.786;2023-04-01T12:42:07;97806.34;;;9.90;76.28
16544;BME280;8384;47.996;7.786;2023-04-01T12:44:42;97797.31;;;9.95;76.97
16544;BME280;8384;47.996;7.786;2023-04-01T12:47:22;97797.03;;;10.01;77.11
16544;BME280;8384;47.996;7.786;2023-04-01T12:50:16;97786.94;;;9.97;78.31
16544;BME280;8384;47.996;7.786;2023-04-01T12:52:56;97790.19;;;9.99;77.84
16544;BME280;8384;47.996;7.786;2023-04-01T12:55:40;97782.00;;;9.99;76.90
16544;BME280;8384;47.996;7.786;2023-04-01T13:04:34;97793.19;;;10.02;79.07
16544;BME280;8384;47.996;7.786;2023-04-01T13:18:17;97800.44;;;10.23;76.73
16544;BME280;8384;47.996;7.786;2023-04-01T13:26:16;97815.97;;;10.32;76.67
16544;BME280;8384;47.996;7.786;2023-04-01T13:28:52;97811.13;;;10.14;76.47
16544;BME280;8384;47.996;7.786;2023-04-01T13:31:34;97823.03;;;10.33;76.18
16544;BME280;8384;47.996;7.786;2023-04-01T13:34:26;97748.44;;;9.98;75.28
16544;BME280;8384;47.996;7.786;2023-04-01T13:40:18;97781.81;;;10.40;75.50
16544;BME280;8384;47.996;7.786;2023-04-01T13:42:54;97779.81;;;10.51;74.58
16544;BME280;8384;47.996;7.786;2023-04-01T13:48:29;97802.06;;;10.69;73.66
16544;BME280;8384;47.996;7.786;2023-04-01T13:53:54;97805.84;;;11.07;72.57
16544;BME280;8384;47.996;7.786;2023-04-01T13:59:39;97799.38;;;11.28;72.58
16544;BME280;8384;47.996;7.786;2023-04-01T14:07:41;97798.72;;;11.60;69.03
16544;BME280;8384;47.996;7.786;2023-04-01T14:10:21;97788.09;;;11.59;68.91
16544;BME280;8384;47.996;7.786;2023-04-01T14:13:01;97722.25;;;11.25;68.35
16544;BME280;8384;47.996;7.786;2023-04-01T14:15:41;97785.09;;;11.55;68.29
16544;BME280;8384;47.996;7.786;2023-04-01T14:21:41;97799.59;;;11.31;69.43
16544;BME280;8384;47.996;7.786;2023-04-01T14:30:09;97763.31;;;9.77;78.56
16544;BME280;8384;47.996;7.786;2023-04-01T14:32:52;97807.00;;;9.56;88.74
16544;BME280;8384;47.996;7.786;2023-04-01T14:36:07;97813.31;;;9.56;93.58
16544;BME280;8384;47.996;7.786;2023-04-01T14:44:23;97814.78;;;9.94;100.00
16544;BME280;8384;47.996;7.786;2023-04-01T14:49:46;97793.81;;;9.84;94.29
16544;BME280;8384;47.996;7.786;2023-04-01T14:54:56;97808.69;;;10.17;96.92
16544;BME280;8384;47.996;7.786;2023-04-01T14:57:31;97812.66;;;9.80;92.97
16544;BME280;8384;47.996;7.786;2023-04-01T15:02:47;97783.06;;;10.08;91.39
16544;BME280;8384;47.996;7.786;2023-04-01T15:08:12;97767.31;;;10.40;88.21
16544;BME280;8384;47.996;7.786;2023-04-01T15:16:13;97757.97;;;10.46;80.83
16544;BME280;8384;47.996;7.786;2023-04-01T15:19:14;97818.09;;;10.80;78.97
16544;BME280;8384;47.996;7.786;2023-04-01T15:21:50;97815.88;;;11.17;79.93
16544;BME280;8384;47.996;7.786;2023-04-01T15:24:23;97822.38;;;10.97;76.35
16544;BME280;8384;47.996;7.786;2023-04-01T15:27:01;97827.00;;;11.26;76.95
16544;BME280;8384;47.996;7.786;2023-04-01T15:29:47;97822.56;;;10.71;77.08
16544;BME280;8384;47.996;7.786;2023-04-01T15:37:37;97825.00;;;10.73;75.81
16544;BME280;8384;47.996;7.786;2023-04-01T15:40:20;97831.44;;;10.53;75.48
16544;BME280;8384;47.996;7.786;2023-04-01T15:49:03;97810.25;;;9.68;78.58
16544;BME280;8384;47.996;7.786;2023-04-01T15:51:56;97833.97;;;9.73;81.65
16544;BME280;8384;47.996;7.786;2023-04-01T15:57:28;97842.75;;;9.65;82.17
16544;BME280;8384;47.996;7.786;2023-04-01T16:09:14;97828.03;;;10.21;76.44
16544;BME280;8384;47.996;7.786;2023-04-01T16:17:31;97835.28;;;10.46;74.81
16544;BME280;8384;47.996;7.786;2023-04-01T16:20:02;97832.41;;;10.72;74.25
16544;BME280;8384;47.996;7.786;2023-04-01T16:22:44;97846.84;;;10.78;74.46
16544;BME280;8384;47.996;7.786;2023-04-01T16:25:42;97846.19;;;10.52;74.10
16544;BME280;8384;47.996;7.786;2023-04-01T16:31:00;97847.22;;;10.61;74.05
16544;BME280;8384;47.996;7.786;2023-04-01T16:33:41;97847.03;;;10.47;74.29
16544;BME280;8384;47.996;7.786;2023-04-01T16:36:22;97854.03;;;10.63;74.63
16544;BME280;8384;47.996;7.786;2023-04-01T16:41:37;97850.56;;;10.53;76.18
16544;BME280;8384;47.996;7.786;2023-04-01T16:44:26;97819.81;;;10.26;75.48
16544;BME280;8384;47.996;7.786;2023-04-01T16:46:54;97840.75;;;10.46;75.02
16544;BME280;8384;47.996;7.786;2023-04-01T16:49:24;97851.97;;;10.45;75.56
16544;BME280;8384;47.996;7.786;2023-04-01T16:52:14;97860.88;;;10.61;75.86
16544;BME280;8384;47.996;7.786;2023-04-01T16:54:59;97832.47;;;10.62;74.71
16544;BME280;8384;47.996;7.786;2023-04-01T16:57:37;97839.97;;;10.41;74.91
16544;BME280;8384;47.996;7.786;2023-04-01T17:00:22;97838.25;;;10.55;74.07
16544;BME280;8384;47.996;7.786;2023-04-01T17:05:44;97856.50;;;10.65;74.58
16544;BME280;8384;47.996;7.786;2023-04-01T17:08:40;97853.59;;;12.04;70.33
16544;BME280;8384;47.996;7.786;2023-04-01T17:11:18;97858.53;;;13.49;62.73
16544;BME280;8384;47.996;7.786;2023-04-01T17:13:51;97856.16;;;14.91;57.99
16544;BME280;8384;47.996;7.786;2023-04-01T17:16:47;97854.50;;;13.75;60.31
16544;BME280;8384;47.996;7.786;2023-04-01T17:20:26;97842.41;;;13.29;62.07
16544;BME280;8384;47.996;7.786;2023-04-01T17:22:40;97832.84;;;12.93;63.28
16544;BME280;8384;47.996;7.786;2023-04-01T17:30:37;97869.41;;;14.38;58.25
16544;BME280;8384;47.996;7.786;2023-04-01T17:33:35;97882.09;;;13.17;61.51
16544;BME280;8384;47.996;7.786;2023-04-01T17:36:15;97865.75;;;12.36;66.31
16544;BME280;8384;47.996;7.786;2023-04-01T17:39:04;97871.13;;;11.73;67.58
16544;BME280;8384;47.996;7.786;2023-04-01T17:41:53;97870.34;;;11.43;68.93
16544;BME280;8384;47.996;7.786;2023-04-01T17:47:00;97873.81;;;10.90;71.63
16544;BME280;8384;47.996;7.786;2023-04-01T17:49:38;97885.28;;;10.92;72.31
16544;BME280;8384;47.996;7.786;2023-04-01T17:52:26;97869.41;;;10.54;74.41
16544;BME280;8384;47.996;7.786;2023-04-01T17:54:56;97873.06;;;10.29;75.37
16544;BME280;8384;47.996;7.786;2023-04-01T17:57:30;97875.56;;;10.20;76.27
16544;BME280;8384;47.996;7.786;2023-04-01T18:05:30;97885.81;;;9.88;77.81
16544;BME280;8384;47.996;7.786;2023-04-01T18:08:11;97877.09;;;9.76;78.24
16544;BME280;8384;47.996;7.786;2023-04-01T18:16:28;97909.38;;;9.27;82.63
16544;BME280;8384;47.996;7.786;2023-04-01T18:21:53;97864.94;;;8.96;84.61
16544;BME280;8384;47.996;7.786;2023-04-01T18:24:35;97919.44;;;9.11;85.96
16544;BME280;8384;47.996;7.786;2023-04-01T18:27:23;97915.34;;;9.24;85.24
16544;BME280;8384;47.996;7.786;2023-04-01T18:32:49;97878.25;;;8.72;86.19
16544;BME280;8384;47.996;7.786;2023-04-01T18:37:58;97913.47;;;8.99;85.91
16544;BME280;8384;47.996;7.786;2023-04-01T18:40:32;97921.06;;;8.87;85.95
16544;BME280;8384;47.996;7.786;2023-04-01T18:45:32;97925.16;;;8.79;86.21
16544;BME280;8384;47.996;7.786;2023-04-01T18:48:08;97934.16;;;8.90;84.70
16544;BME280;8384;47.996;7.786;2023-04-01T18:50:57;97925.13;;;8.68;85.17
16544;BME280;8384;47.996;7.786;2023-04-01T18:53:48;97930.81;;;8.62;84.69
16544;BME280;8384;47.996;7.786;2023-04-01T18:56:30;97944.72;;;8.60;83.85
16544;BME280;8384;47.996;7.786;2023-04-01T19:01:37;97946.88;;;8.63;82.76
16544;BME280;8384;47.996;7.786;2023-04-01T19:07:20;97959.34;;;8.44;80.76
16544;BME280;8384;47.996;7.786;2023-04-01T19:09:47;97950.38;;;8.48;80.50
16544;BME280;8384;47.996;7.786;2023-04-01T19:15:08;97965.94;;;8.53;79.16
16544;BME280;8384;47.996;7.786;2023-04-01T19:17:55;97948.13;;;8.30;79.78
16544;BME280;8384;47.996;7.786;2023-04-01T19:21:04;97958.56;;;8.48;79.19
16544;BME280;8384;47.996;7.786;2023-04-01T19:23:47;97923.25;;;8.10;79.64
16544;BME280;8384;47.996;7.786;2023-04-01T19:26:39;97959.56;;;8.32;79.94
16544;BME280;8384;47.996;7.786;2023-04-01T19:37:27;97938.44;;;7.96;81.58
16544;BME280;8384;47.996;7.786;2023-04-01T19:40:14;97973.31;;;8.09;82.16
16544;BME280;8384;47.996;7.786;2023-04-01T19:46:14;97981.34;;;8.32;79.74